Atkinson, Maine
Current Conditions -  °F | °C
As of 4:53 AM on Saturday 22 Nov 2014 (Local Time) from KBGR Reporting Station
Clear Clear  
Wind Chill:   Ceiling: Unl
Heat Index: 16°   Visibility: 10mi
Dew Point:   Wind: 5mph
Humidity: 65%   Direction: 210°SSW
Pressure: 30.29"   Gusts: NA
Location:  45.2129°N, 69.1615°W
Report Text: KBGR 220953Z 21004KT 10SM CLR M09/M14 A3029 RMK AO2 SLP262 T10891144
Loading
Personal Weather Stations






























Interactive Weather Map New forecast layout! Learn more

10-Day Weather Forecast

Advertisements
Track Severe Weather on mobile